createdAt,value
2023-03-17T07:41:58.346Z,21.4939
2023-03-17T07:42:59.743Z,21.5194
2023-03-17T07:44:01.149Z,21.5076
2023-03-17T07:45:02.492Z,21.6066
2023-03-17T07:46:06.190Z,21.6313
2023-03-17T07:47:04.964Z,21.6989
2023-03-17T07:48:06.353Z,21.7339
2023-03-17T07:49:07.749Z,21.9426
2023-03-17T07:50:09.109Z,21.9679
2023-03-17T07:51:10.519Z,22.0491
2023-03-17T07:52:11.913Z,22.1203
2023-03-17T07:53:13.315Z,22.2108
2023-03-17T07:54:15.179Z,22.2646
2023-03-17T07:55:16.572Z,22.3201
2023-03-17T07:56:17.921Z,22.3291
2023-03-17T07:57:19.362Z,22.3314
2023-03-17T07:58:20.723Z,22.4259
2023-03-17T07:59:22.136Z,22.4855
2023-03-17T08:00:23.534Z,22.4926
2023-03-17T08:01:24.876Z,22.5672
2023-03-17T08:02:26.331Z,22.5616
2023-03-17T08:03:27.692Z,22.4813
2023-03-17T08:04:29.114Z,22.4275
2023-03-17T08:05:30.447Z,22.4342
2023-03-17T08:06:31.849Z,22.4258
2023-03-17T08:46:37.816Z,23.6034
2023-03-17T08:47:39.079Z,23.3471
2023-03-17T08:48:40.343Z,23.6034
2023-03-17T08:49:41.599Z,23.6461
2023-03-17T08:54:58.877Z,0.0000
2023-03-17T08:55:58.746Z,0.0000
2023-03-17T09:17:31.395Z,0.0000
2023-03-17T09:18:32.147Z,0.0000
2023-03-17T09:19:32.993Z,0.0000
2023-03-17T09:20:34.020Z,0.0000
2023-03-17T09:22:51.159Z,99.0000
2023-03-17T09:25:06.003Z,23.8918
2023-03-17T09:26:06.236Z,23.9612
2023-03-17T09:27:06.383Z,23.9867
2023-03-17T09:28:06.645Z,24.0075
2023-03-17T09:29:06.802Z,24.0135
2023-03-17T09:30:06.971Z,24.0258
2023-03-17T09:31:07.160Z,23.9935
2023-03-17T09:32:07.416Z,23.9512
2023-03-17T09:34:50.314Z,99.0000
2023-03-17T09:35:48.211Z,99.0000
2023-03-17T09:36:48.176Z,99.0000
2023-03-17T09:42:04.093Z,99.0000
2023-03-17T09:43:55.699Z,99.0000
2023-03-17T09:44:55.636Z,99.0000
2023-03-17T09:45:55.638Z,99.0000
2023-03-17T09:47:27.446Z,24.1954
2023-03-17T09:48:27.722Z,25.4967
2023-03-17T09:50:47.211Z,99.0000
2023-03-17T09:51:47.166Z,99.0000
2023-03-17T09:54:11.460Z,99.0000
2023-03-17T10:02:55.011Z,24.7667
2023-03-17T10:03:55.217Z,24.7977
2023-03-17T10:04:55.505Z,24.7069
2023-03-17T10:05:55.754Z,24.6902
2023-03-17T10:06:56.053Z,24.6859
2023-03-17T10:07:56.261Z,24.6952
2023-03-17T10:08:56.527Z,24.7882
2023-03-17T10:09:56.817Z,24.8340
2023-03-17T10:12:18.765Z,0.0000
2023-03-17T10:13:18.620Z,0.0000
2023-03-17T10:14:18.626Z,0.0000
2023-03-17T10:15:18.759Z,0.0000
2023-03-17T10:17:12.480Z,24.7323
2023-03-17T10:19:29.871Z,0.0000
2023-03-17T10:20:29.711Z,0.0000
2023-03-17T10:21:30.678Z,0.0000
2023-03-17T10:22:31.122Z,0.0000
2023-03-17T10:23:31.409Z,11.6236
2023-03-17T10:24:31.838Z,25.7647
2023-03-17T10:25:32.557Z,25.6048
2023-03-17T10:26:33.095Z,25.1407
2023-03-17T10:27:33.725Z,25.3177
2023-03-17T10:28:34.103Z,25.3060
2023-03-17T10:29:34.522Z,25.3211
2023-03-17T10:30:35.980Z,25.3140
2023-03-17T10:31:36.398Z,25.2681
2023-03-17T10:33:21.832Z,24.8760
2023-03-17T10:34:23.232Z,24.5690
2023-03-17T10:35:25.830Z,23.4886
2023-03-17T10:36:28.517Z,23.1552
2023-03-17T10:37:31.019Z,23.5381
2023-03-17T10:38:33.576Z,23.5769
2023-03-17T11:28:11.696Z,22.9542
2023-03-17T11:29:14.262Z,22.9609
2023-03-17T11:30:16.844Z,23.2959
2023-03-17T11:31:19.585Z,23.3682
2023-03-17T11:32:22.114Z,23.4670
2023-03-17T11:33:24.706Z,23.6053
2023-03-17T11:34:27.237Z,23.5650
2023-03-17T11:35:29.834Z,23.6525
2023-03-17T11:36:32.383Z,23.6876
2023-03-17T11:37:35.003Z,23.6714
2023-03-17T11:38:37.530Z,23.7766
2023-03-17T11:39:40.107Z,23.8690
2023-03-17T11:40:42.674Z,23.9822
2023-03-17T11:41:45.334Z,24.0179
2023-03-17T11:44:07.882Z,23.9235
2023-03-17T11:45:53.098Z,23.9975
2023-03-17T11:46:55.594Z,24.0262
2023-03-17T11:47:59.894Z,24.0463
2023-03-17T11:49:01.101Z,24.0639
2023-03-17T11:50:03.382Z,24.1026
2023-03-17T11:51:05.945Z,24.1268
2023-03-17T11:52:08.495Z,24.1498
2023-03-17T11:53:11.078Z,24.1145
2023-03-17T11:54:13.674Z,24.1334
2023-03-17T11:55:16.243Z,24.2102
2023-03-17T11:56:18.851Z,24.2275
2023-03-17T11:59:17.969Z,24.2805
2023-03-17T12:00:20.537Z,24.2314
2023-03-17T17:59:32.387Z,20.3381
2023-03-17T18:02:42.577Z,20.4070
2023-03-17T18:03:45.125Z,20.4389
2023-03-17T18:04:47.729Z,20.4516
2023-03-17T18:05:50.288Z,20.4321
2023-03-17T18:07:39.142Z,20.4570
2023-03-17T18:08:41.807Z,20.5245
2023-03-17T18:09:44.308Z,20.5235
2023-03-17T18:10:46.902Z,20.5430
2023-03-17T18:11:49.492Z,20.5438
2023-03-17T18:12:52.112Z,20.5254
2023-03-17T18:13:54.646Z,20.4315
2023-03-17T18:14:57.234Z,20.5547
2023-03-17T18:15:59.804Z,20.5829
2023-03-17T18:17:02.448Z,20.6256
2023-03-17T18:18:05.003Z,20.6283
2023-03-17T18:19:07.561Z,20.6677
2023-03-17T18:20:10.223Z,20.7254
2023-03-17T18:21:12.726Z,20.7470
2023-03-17T18:22:15.324Z,20.7622
2023-03-17T18:23:17.914Z,20.7026
2023-03-17T18:24:20.482Z,20.6973
2023-03-17T18:25:23.148Z,20.8752
2023-03-17T18:26:25.807Z,20.9588
2023-03-17T18:28:59.429Z,21.1246
2023-03-17T18:30:02.015Z,21.2463
2023-03-17T18:31:04.643Z,21.2946
2023-03-17T18:32:07.459Z,21.4721
2023-03-17T18:33:09.864Z,21.5066
2023-03-17T18:34:12.344Z,21.6452
2023-03-17T18:35:14.921Z,21.7288
2023-03-17T18:41:26.656Z,22.2080
2023-03-17T18:42:29.231Z,22.3451
2023-03-17T18:43:31.807Z,22.2980
